»·PEaware :: N522PM KSAN-KSBA

N522PM :: KSAN-KSBA

FLIGHT INFORMATION

Flight Status: Arrived
Operator: Privately registered:
United States
More flights under this callsign
Pilot: Bruce B. (6887)
Aircraft: Unknown
(E50P)
More flights by this aircraft type
Origin: KSAN San Diego Intl-Lindbergh
United States
Destination: KSBA Santa Barbara Mun
United States
More flights between these airports :: More routes between these airports
Route: +PEBLE6 V27 SXC V208 VTU VTU282 KWANG
File this flight plan on PilotEdge
Remarks: TEC route SANP36
Altitude:
(Current/Filed)
10,000ft
Speed:
(Current/Filed)
275kts
Departed: 11-Jan-19 06:51 PM
Arrived: 11-Jan-19 07:43 PM
Distance/Time
Traveled:
167nm/0:52
Distance/Time
To Go:
Arrived

Flight Plot

Page will automatically refresh every two minutes.

Flight plan parsing failed; only flown route is shown


Map Options




Map Legend


Flown Route
Filed Route
Departure Airport
Arrival Airport
Navaid (VOR, NDB)
Fix

Horizontal Profiles

Position Reports

Time Latitude Longitude Heading Altitude Ground
Speed
11-Jan-19 18:33 32.733462 -117.178683 18 20ft 0kts
11-Jan-19 18:34 32.733462 -117.178683 18 20ft 0kts
11-Jan-19 18:35 32.733462 -117.178683 18 20ft 0kts
11-Jan-19 18:36 32.733462 -117.178683 18 20ft 0kts
11-Jan-19 18:37 32.733462 -117.178683 18 20ft 0kts
11-Jan-19 18:38 32.733462 -117.178683 18 20ft 0kts
11-Jan-19 18:39 32.733462 -117.178683 18 20ft 0kts
11-Jan-19 18:40 32.733462 -117.178683 18 20ft 0kts
11-Jan-19 18:41 32.733462 -117.178683 18 20ft 0kts
11-Jan-19 18:42 32.733462 -117.178683 18 20ft 0kts
11-Jan-19 18:43 32.733462 -117.178683 18 20ft 0kts
11-Jan-19 18:44 32.733462 -117.178683 18 20ft 0kts
11-Jan-19 18:45 32.733551 -117.179123 268 20ft 4kts
11-Jan-19 18:46 32.732537 -117.177575 107 20ft 15kts
11-Jan-19 18:47 32.731068 -117.175591 142 20ft 0kts
11-Jan-19 18:48 32.731068 -117.175590 142 20ft 0kts
11-Jan-19 18:49 32.730236 -117.175299 231 20ft 14kts
11-Jan-19 18:50 32.731125 -117.179813 285 20ft 70kts
11-Jan-19 18:51 32.745357 -117.213008 306 956ft 128kts
11-Jan-19 18:52 32.766757 -117.246330 305 2251ft 133kts
11-Jan-19 18:53 32.788836 -117.281778 305 3636ft 129kts
11-Jan-19 18:54 32.810894 -117.316635 305 5089ft 128kts
11-Jan-19 18:55 32.835091 -117.354072 305 6056ft 178kts
11-Jan-19 18:57 32.872521 -117.412534 305 6920ft 252kts
11-Jan-19 18:58 32.920904 -117.478477 324 8344ft 279kts
11-Jan-19 18:59 32.986767 -117.531259 311 9748ft 290kts
11-Jan-19 19:00 33.040206 -117.612214 311 9982ft 331kts
11-Jan-19 19:01 33.091744 -117.696597 302 9976ft 296kts
11-Jan-19 19:02 33.139854 -117.771419 304 9977ft 275kts
11-Jan-19 19:03 33.183367 -117.840487 293 9976ft 265kts
11-Jan-19 19:04 33.209661 -117.919293 287 9979ft 263kts
11-Jan-19 19:05 33.236180 -117.998993 287 10003ft 272kts
11-Jan-19 19:06 33.264530 -118.084546 287 10003ft 280kts
11-Jan-19 19:07 33.293311 -118.171612 287 10002ft 283kts
11-Jan-19 19:08 33.322264 -118.259376 287 10001ft 284kts
11-Jan-19 19:09 33.348771 -118.348351 267 9998ft 277kts
11-Jan-19 19:10 33.370166 -118.437507 292 10001ft 287kts
11-Jan-19 19:11 33.428217 -118.504706 319 10000ft 291kts
11-Jan-19 19:12 33.481785 -118.574668 305 9999ft 283kts
11-Jan-19 19:13 33.532248 -118.646364 306 9997ft 278kts
11-Jan-19 19:14 33.581924 -118.717008 306 9997ft 276kts
11-Jan-19 19:15 33.627868 -118.782452 306 9996ft 274kts
11-Jan-19 19:15 33.668729 -118.840745 306 9996ft 273kts
11-Jan-19 19:16 33.717650 -118.910660 305 9996ft 273kts
11-Jan-19 19:18 33.774950 -118.992613 307 10005ft 277kts
11-Jan-19 19:19 33.847565 -119.021352 355 10008ft 289kts
11-Jan-19 19:19 33.914392 -119.028214 354 10007ft 290kts
11-Jan-19 19:20 33.994456 -119.036807 354 10009ft 287kts
11-Jan-19 19:21 34.073873 -119.045182 354 10008ft 285kts
11-Jan-19 19:22 34.134995 -119.095780 290 10011ft 271kts
11-Jan-19 19:23 34.168481 -119.177574 292 10005ft 272kts
11-Jan-19 19:24 34.202777 -119.258920 292 10000ft 272kts
11-Jan-19 19:25 34.236869 -119.340524 291 9998ft 272kts
11-Jan-19 19:26 34.270327 -119.420813 291 9994ft 262kts
11-Jan-19 19:27 34.302713 -119.498801 291 9990ft 258kts
11-Jan-19 19:28 34.332076 -119.577407 287 9148ft 254kts
11-Jan-19 19:29 34.351524 -119.658246 273 7845ft 249kts
11-Jan-19 19:30 34.362150 -119.740160 273 6222ft 241kts
11-Jan-19 19:31 34.372238 -119.811135 273 5758ft 196kts
11-Jan-19 19:32 34.381579 -119.874333 273 4148ft 186kts
11-Jan-19 19:33 34.386095 -119.934296 263 3046ft 156kts
11-Jan-19 19:34 34.387276 -119.981533 263 3000ft 141kts
11-Jan-19 19:35 34.387788 -120.035663 263 3024ft 170kts
11-Jan-19 19:36 34.410494 -120.072775 23 3021ft 157kts
11-Jan-19 19:37 34.429040 -120.034453 113 2657ft 139kts
11-Jan-19 19:38 34.425632 -119.988228 98 2603ft 142kts
11-Jan-19 19:39 34.426023 -119.941750 93 1976ft 126kts
11-Jan-19 19:40 34.426683 -119.900314 90 790ft 109kts
11-Jan-19 19:41 34.427396 -119.865316 90 225ft 98kts
11-Jan-19 19:42 34.427792 -119.840185 97 15ft 6kts
11-Jan-19 19:43 34.425426 -119.837921 163 15ft 19kts
11-Jan-19 19:44 34.422731 -119.836609 158 15ft 5kts
11-Jan-19 19:45 34.422718 -119.836603 162 15ft 0kts

Navigation Log

Ident Type
Flight plan parsing failed, navigation log unavailable